sensor_id;sensor_type;location;lat;lon;timestamp;P1;durP1;ratioP1;P2;durP2;ratioP2
24161;SDS011;12318;51.262;7.066;2023-03-01T00:01:30;13.25;;;7.85;;
24161;SDS011;12318;51.262;7.066;2023-03-01T00:06:49;11.63;;;8.25;;
24161;SDS011;12318;51.262;7.066;2023-03-01T00:09:15;14.40;;;7.80;;
24161;SDS011;12318;51.262;7.066;2023-03-01T00:11:41;13.93;;;9.00;;
24161;SDS011;12318;51.262;7.066;2023-03-01T00:14:08;14.60;;;8.45;;
24161;SDS011;12318;51.262;7.066;2023-03-01T00:16:35;13.75;;;8.60;;
24161;SDS011;12318;51.262;7.066;2023-03-01T00:19:04;14.20;;;8.02;;
24161;SDS011;12318;51.262;7.066;2023-03-01T00:21:37;16.35;;;8.63;;
24161;SDS011;12318;51.262;7.066;2023-03-01T00:27:06;15.10;;;9.05;;
24161;SDS011;12318;51.262;7.066;2023-03-01T00:29:32;16.00;;;8.50;;
24161;SDS011;12318;51.262;7.066;2023-03-01T00:32:01;13.68;;;8.52;;
24161;SDS011;12318;51.262;7.066;2023-03-01T00:34:27;13.02;;;8.48;;
24161;SDS011;12318;51.262;7.066;2023-03-01T00:36:55;14.77;;;8.88;;
24161;SDS011;12318;51.262;7.066;2023-03-01T00:39:30;12.57;;;8.77;;
24161;SDS011;12318;51.262;7.066;2023-03-01T00:41:57;13.20;;;8.82;;
24161;SDS011;12318;51.262;7.066;2023-03-01T00:44:25;15.43;;;9.15;;
24161;SDS011;12318;51.262;7.066;2023-03-01T00:46:51;13.63;;;8.88;;
24161;SDS011;12318;51.262;7.066;2023-03-01T00:49:18;16.63;;;8.63;;
24161;SDS011;12318;51.262;7.066;2023-03-01T00:51:47;13.68;;;8.63;;
24161;SDS011;12318;51.262;7.066;2023-03-01T00:54:18;15.50;;;9.07;;
24161;SDS011;12318;51.262;7.066;2023-03-01T00:56:44;13.60;;;8.45;;
24161;SDS011;12318;51.262;7.066;2023-03-01T00:59:10;13.90;;;8.90;;
24161;SDS011;12318;51.262;7.066;2023-03-01T01:01:35;12.88;;;8.88;;
24161;SDS011;12318;51.262;7.066;2023-03-01T01:04:07;15.23;;;9.48;;
24161;SDS011;12318;51.262;7.066;2023-03-01T01:06:36;16.40;;;9.88;;
24161;SDS011;12318;51.262;7.066;2023-03-01T01:09:09;17.20;;;9.90;;
24161;SDS011;12318;51.262;7.066;2023-03-01T01:11:42;15.82;;;9.80;;
24161;SDS011;12318;51.262;7.066;2023-03-01T01:14:10;14.30;;;9.57;;
24161;SDS011;12318;51.262;7.066;2023-03-01T01:16:35;16.52;;;9.40;;
24161;SDS011;12318;51.262;7.066;2023-03-01T01:19:01;15.57;;;9.75;;
24161;SDS011;12318;51.262;7.066;2023-03-01T01:21:27;16.15;;;10.07;;
24161;SDS011;12318;51.262;7.066;2023-03-01T01:24:02;16.23;;;9.75;;
24161;SDS011;12318;51.262;7.066;2023-03-01T01:26:29;14.73;;;9.80;;
24161;SDS011;12318;51.262;7.066;2023-03-01T01:28:57;15.25;;;9.57;;
24161;SDS011;12318;51.262;7.066;2023-03-01T01:31:23;15.82;;;9.45;;
24161;SDS011;12318;51.262;7.066;2023-03-01T01:33:56;15.93;;;9.40;;
24161;SDS011;12318;51.262;7.066;2023-03-01T01:36:24;14.98;;;8.82;;
24161;SDS011;12318;51.262;7.066;2023-03-01T01:38:51;16.73;;;9.80;;
24161;SDS011;12318;51.262;7.066;2023-03-01T01:41:17;14.73;;;9.60;;
24161;SDS011;12318;51.262;7.066;2023-03-01T01:43:44;13.10;;;9.60;;
24161;SDS011;12318;51.262;7.066;2023-03-01T01:46:31;12.70;;;9.43;;
24161;SDS011;12318;51.262;7.066;2023-03-01T01:49:07;17.88;;;9.20;;
24161;SDS011;12318;51.262;7.066;2023-03-01T01:51:57;15.20;;;9.63;;
24161;SDS011;12318;51.262;7.066;2023-03-01T01:57:40;15.38;;;9.27;;
24161;SDS011;12318;51.262;7.066;2023-03-01T02:00:17;13.95;;;9.02;;
24161;SDS011;12318;51.262;7.066;2023-03-01T02:02:50;18.02;;;9.88;;
24161;SDS011;12318;51.262;7.066;2023-03-01T02:08:05;17.15;;;9.57;;
24161;SDS011;12318;51.262;7.066;2023-03-01T02:10:33;15.00;;;9.43;;
24161;SDS011;12318;51.262;7.066;2023-03-01T02:13:00;14.75;;;9.27;;
24161;SDS011;12318;51.262;7.066;2023-03-01T02:15:32;15.60;;;9.70;;
24161;SDS011;12318;51.262;7.066;2023-03-01T02:17:59;14.65;;;9.88;;
24161;SDS011;12318;51.262;7.066;2023-03-01T02:20:33;16.67;;;9.75;;
24161;SDS011;12318;51.262;7.066;2023-03-01T02:23:21;18.10;;;11.05;;
24161;SDS011;12318;51.262;7.066;2023-03-01T02:28:44;17.40;;;10.25;;
24161;SDS011;12318;51.262;7.066;2023-03-01T02:31:11;15.23;;;10.05;;
24161;SDS011;12318;51.262;7.066;2023-03-01T02:33:59;17.85;;;11.30;;
24161;SDS011;12318;51.262;7.066;2023-03-01T02:36:30;17.35;;;11.00;;
24161;SDS011;12318;51.262;7.066;2023-03-01T02:39:01;18.63;;;11.40;;
24161;SDS011;12318;51.262;7.066;2023-03-01T02:41:32;16.27;;;10.60;;
24161;SDS011;12318;51.262;7.066;2023-03-01T02:44:11;16.85;;;10.55;;
24161;SDS011;12318;51.262;7.066;2023-03-01T02:46:47;15.13;;;10.13;;
24161;SDS011;12318;51.262;7.066;2023-03-01T02:49:18;16.05;;;10.85;;
24161;SDS011;12318;51.262;7.066;2023-03-01T02:57:45;18.33;;;11.98;;
24161;SDS011;12318;51.262;7.066;2023-03-01T03:00:20;17.20;;;11.73;;
24161;SDS011;12318;51.262;7.066;2023-03-01T03:02:50;18.90;;;11.73;;
24161;SDS011;12318;51.262;7.066;2023-03-01T03:05:32;16.55;;;11.88;;
24161;SDS011;12318;51.262;7.066;2023-03-01T03:07:59;18.17;;;12.32;;
24161;SDS011;12318;51.262;7.066;2023-03-01T03:10:30;15.68;;;11.40;;
24161;SDS011;12318;51.262;7.066;2023-03-01T03:12:58;19.05;;;11.32;;
24161;SDS011;12318;51.262;7.066;2023-03-01T03:15:26;18.23;;;12.05;;
24161;SDS011;12318;51.262;7.066;2023-03-01T03:17:54;18.92;;;12.10;;
24161;SDS011;12318;51.262;7.066;2023-03-01T03:20:25;17.50;;;12.00;;
24161;SDS011;12318;51.262;7.066;2023-03-01T03:22:53;14.95;;;11.32;;
24161;SDS011;12318;51.262;7.066;2023-03-01T03:25:23;19.85;;;12.30;;
24161;SDS011;12318;51.262;7.066;2023-03-01T03:27:53;22.42;;;11.95;;
24161;SDS011;12318;51.262;7.066;2023-03-01T03:30:22;16.95;;;12.10;;
24161;SDS011;12318;51.262;7.066;2023-03-01T03:32:53;18.25;;;12.52;;
24161;SDS011;12318;51.262;7.066;2023-03-01T03:35:28;21.73;;;12.30;;
24161;SDS011;12318;51.262;7.066;2023-03-01T03:37:56;18.30;;;12.32;;
24161;SDS011;12318;51.262;7.066;2023-03-01T03:40:32;17.83;;;11.60;;
24161;SDS011;12318;51.262;7.066;2023-03-01T03:43:01;17.92;;;11.85;;
24161;SDS011;12318;51.262;7.066;2023-03-01T03:45:37;17.83;;;12.23;;
24161;SDS011;12318;51.262;7.066;2023-03-01T03:48:04;20.00;;;12.15;;
24161;SDS011;12318;51.262;7.066;2023-03-01T03:50:39;18.63;;;12.32;;
24161;SDS011;12318;51.262;7.066;2023-03-01T03:53:09;19.35;;;12.55;;
24161;SDS011;12318;51.262;7.066;2023-03-01T03:55:36;20.52;;;12.07;;
24161;SDS011;12318;51.262;7.066;2023-03-01T03:58:04;18.38;;;12.10;;
24161;SDS011;12318;51.262;7.066;2023-03-01T04:00:35;19.13;;;11.95;;
24161;SDS011;12318;51.262;7.066;2023-03-01T04:03:06;17.75;;;11.77;;
24161;SDS011;12318;51.262;7.066;2023-03-01T04:05:46;19.83;;;11.98;;
24161;SDS011;12318;51.262;7.066;2023-03-01T04:08:13;20.00;;;13.00;;
24161;SDS011;12318;51.262;7.066;2023-03-01T04:10:45;17.52;;;12.13;;
24161;SDS011;12318;51.262;7.066;2023-03-01T04:13:16;18.88;;;11.40;;
24161;SDS011;12318;51.262;7.066;2023-03-01T04:18:36;18.60;;;11.93;;
24161;SDS011;12318;51.262;7.066;2023-03-01T04:21:02;17.27;;;11.80;;
24161;SDS011;12318;51.262;7.066;2023-03-01T04:23:28;18.52;;;12.23;;
24161;SDS011;12318;51.262;7.066;2023-03-01T04:26:00;17.25;;;12.13;;
24161;SDS011;12318;51.262;7.066;2023-03-01T04:30:54;18.48;;;12.77;;
24161;SDS011;12318;51.262;7.066;2023-03-01T04:33:21;18.33;;;12.45;;
24161;SDS011;12318;51.262;7.066;2023-03-01T04:36:04;15.15;;;11.35;;
24161;SDS011;12318;51.262;7.066;2023-03-01T04:38:30;18.48;;;12.70;;
24161;SDS011;12318;51.262;7.066;2023-03-01T04:40:58;17.45;;;11.73;;
24161;SDS011;12318;51.262;7.066;2023-03-01T04:43:29;20.95;;;11.90;;
24161;SDS011;12318;51.262;7.066;2023-03-01T04:46:11;18.40;;;12.38;;
24161;SDS011;12318;51.262;7.066;2023-03-01T04:48:40;18.25;;;12.90;;
24161;SDS011;12318;51.262;7.066;2023-03-01T04:51:06;19.23;;;13.35;;
24161;SDS011;12318;51.262;7.066;2023-03-01T04:53:34;18.25;;;12.88;;
24161;SDS011;12318;51.262;7.066;2023-03-01T04:56:14;19.73;;;13.02;;
24161;SDS011;12318;51.262;7.066;2023-03-01T04:58:42;19.35;;;13.73;;
24161;SDS011;12318;51.262;7.066;2023-03-01T05:01:12;20.38;;;13.95;;
24161;SDS011;12318;51.262;7.066;2023-03-01T05:06:14;22.17;;;14.18;;
24161;SDS011;12318;51.262;7.066;2023-03-01T05:11:07;21.45;;;13.02;;
24161;SDS011;12318;51.262;7.066;2023-03-01T05:13:34;19.08;;;13.52;;
24161;SDS011;12318;51.262;7.066;2023-03-01T05:16:09;19.67;;;13.43;;
24161;SDS011;12318;51.262;7.066;2023-03-01T05:18:38;20.00;;;12.95;;
24161;SDS011;12318;51.262;7.066;2023-03-01T05:21:06;22.17;;;14.65;;
24161;SDS011;12318;51.262;7.066;2023-03-01T05:23:33;18.83;;;13.43;;
24161;SDS011;12318;51.262;7.066;2023-03-01T05:26:11;19.20;;;13.20;;
24161;SDS011;12318;51.262;7.066;2023-03-01T05:28:37;22.95;;;13.60;;
24161;SDS011;12318;51.262;7.066;2023-03-01T05:31:03;19.60;;;13.30;;
24161;SDS011;12318;51.262;7.066;2023-03-01T05:33:34;25.00;;;14.23;;
24161;SDS011;12318;51.262;7.066;2023-03-01T05:36:17;20.17;;;13.68;;
24161;SDS011;12318;51.262;7.066;2023-03-01T05:38:43;20.90;;;14.38;;
24161;SDS011;12318;51.262;7.066;2023-03-01T05:41:13;21.65;;;14.68;;
24161;SDS011;12318;51.262;7.066;2023-03-01T05:43:41;22.63;;;14.18;;
24161;SDS011;12318;51.262;7.066;2023-03-01T05:46:15;25.05;;;14.40;;
24161;SDS011;12318;51.262;7.066;2023-03-01T05:48:41;25.52;;;15.13;;
24161;SDS011;12318;51.262;7.066;2023-03-01T05:51:06;24.38;;;14.63;;
24161;SDS011;12318;51.262;7.066;2023-03-01T05:53:32;22.13;;;13.98;;
24161;SDS011;12318;51.262;7.066;2023-03-01T05:56:04;19.63;;;14.15;;
24161;SDS011;12318;51.262;7.066;2023-03-01T05:58:31;20.48;;;14.05;;
24161;SDS011;12318;51.262;7.066;2023-03-01T06:01:03;21.42;;;14.07;;
24161;SDS011;12318;51.262;7.066;2023-03-01T06:03:29;20.90;;;14.32;;
24161;SDS011;12318;51.262;7.066;2023-03-01T06:08:40;21.20;;;14.43;;
24161;SDS011;12318;51.262;7.066;2023-03-01T06:11:07;22.80;;;14.48;;
24161;SDS011;12318;51.262;7.066;2023-03-01T06:13:33;22.45;;;14.80;;
24161;SDS011;12318;51.262;7.066;2023-03-01T06:15:59;23.40;;;14.98;;
24161;SDS011;12318;51.262;7.066;2023-03-01T06:18:25;21.95;;;14.13;;
24161;SDS011;12318;51.262;7.066;2023-03-01T06:20:54;22.02;;;14.90;;
24161;SDS011;12318;51.262;7.066;2023-03-01T06:23:21;23.90;;;15.65;;
24161;SDS011;12318;51.262;7.066;2023-03-01T06:25:48;21.95;;;14.73;;
24161;SDS011;12318;51.262;7.066;2023-03-01T06:28:14;22.65;;;15.27;;
24161;SDS011;12318;51.262;7.066;2023-03-01T06:30:40;22.48;;;15.20;;
24161;SDS011;12318;51.262;7.066;2023-03-01T06:33:05;23.63;;;15.35;;
24161;SDS011;12318;51.262;7.066;2023-03-01T06:35:34;21.88;;;13.77;;
24161;SDS011;12318;51.262;7.066;2023-03-01T06:38:01;26.98;;;14.98;;
24161;SDS011;12318;51.262;7.066;2023-03-01T06:40:31;22.60;;;14.57;;
24161;SDS011;12318;51.262;7.066;2023-03-01T06:43:00;21.83;;;14.82;;
24161;SDS011;12318;51.262;7.066;2023-03-01T06:45:31;23.98;;;14.30;;
24161;SDS011;12318;51.262;7.066;2023-03-01T06:48:05;20.13;;;11.52;;
24161;SDS011;12318;51.262;7.066;2023-03-01T06:50:35;23.25;;;14.70;;
24161;SDS011;12318;51.262;7.066;2023-03-01T06:53:03;19.97;;;12.47;;
24161;SDS011;12318;51.262;7.066;2023-03-01T06:55:46;23.77;;;13.90;;
24161;SDS011;12318;51.262;7.066;2023-03-01T06:58:11;24.33;;;15.32;;
24161;SDS011;12318;51.262;7.066;2023-03-01T07:00:39;24.70;;;15.18;;
24161;SDS011;12318;51.262;7.066;2023-03-01T07:03:05;26.58;;;15.25;;
24161;SDS011;12318;51.262;7.066;2023-03-01T07:05:32;25.52;;;15.05;;
24161;SDS011;12318;51.262;7.066;2023-03-01T07:08:06;25.35;;;15.18;;
24161;SDS011;12318;51.262;7.066;2023-03-01T07:10:32;23.02;;;14.82;;
24161;SDS011;12318;51.262;7.066;2023-03-01T07:12:58;23.98;;;15.10;;
24161;SDS011;12318;51.262;7.066;2023-03-01T07:18:23;27.40;;;15.68;;
24161;SDS011;12318;51.262;7.066;2023-03-01T07:20:49;23.05;;;13.98;;
24161;SDS011;12318;51.262;7.066;2023-03-01T07:23:15;20.88;;;14.25;;
24161;SDS011;12318;51.262;7.066;2023-03-01T07:25:43;23.23;;;14.15;;
24161;SDS011;12318;51.262;7.066;2023-03-01T07:31:12;22.77;;;15.18;;
24161;SDS011;12318;51.262;7.066;2023-03-01T07:33:37;25.65;;;14.63;;
24161;SDS011;12318;51.262;7.066;2023-03-01T07:36:03;24.35;;;14.40;;
24161;SDS011;12318;51.262;7.066;2023-03-01T07:38:30;26.40;;;13.32;;
24161;SDS011;12318;51.262;7.066;2023-03-01T07:41:00;22.33;;;13.82;;
24161;SDS011;12318;51.262;7.066;2023-03-01T07:43:32;25.17;;;14.00;;
24161;SDS011;12318;51.262;7.066;2023-03-01T07:45:58;27.52;;;14.40;;
24161;SDS011;12318;51.262;7.066;2023-03-01T07:48:28;26.48;;;14.65;;
24161;SDS011;12318;51.262;7.066;2023-03-01T07:50:57;22.90;;;14.02;;
24161;SDS011;12318;51.262;7.066;2023-03-01T07:53:24;21.17;;;13.40;;
24161;SDS011;12318;51.262;7.066;2023-03-01T07:56:06;21.55;;;13.55;;
24161;SDS011;12318;51.262;7.066;2023-03-01T08:01:45;24.38;;;13.05;;
24161;SDS011;12318;51.262;7.066;2023-03-01T08:04:11;23.45;;;13.23;;
24161;SDS011;12318;51.262;7.066;2023-03-01T08:06:36;21.65;;;13.20;;
24161;SDS011;12318;51.262;7.066;2023-03-01T08:11:52;20.08;;;12.48;;
24161;SDS011;12318;51.262;7.066;2023-03-01T08:14:19;21.73;;;12.98;;
24161;SDS011;12318;51.262;7.066;2023-03-01T08:16:45;17.95;;;12.38;;
24161;SDS011;12318;51.262;7.066;2023-03-01T08:22:02;20.77;;;12.30;;
24161;SDS011;12318;51.262;7.066;2023-03-01T08:24:28;22.52;;;13.02;;
24161;SDS011;12318;51.262;7.066;2023-03-01T08:26:54;17.98;;;12.20;;
24161;SDS011;12318;51.262;7.066;2023-03-01T08:29:20;20.67;;;12.50;;
24161;SDS011;12318;51.262;7.066;2023-03-01T08:31:55;21.17;;;12.93;;
24161;SDS011;12318;51.262;7.066;2023-03-01T08:34:29;21.40;;;12.85;;
24161;SDS011;12318;51.262;7.066;2023-03-01T08:36:57;22.67;;;12.20;;
24161;SDS011;12318;51.262;7.066;2023-03-01T08:39:28;17.65;;;11.88;;
24161;SDS011;12318;51.262;7.066;2023-03-01T08:41:54;23.75;;;12.20;;
24161;SDS011;12318;51.262;7.066;2023-03-01T08:44:20;20.27;;;12.52;;
24161;SDS011;12318;51.262;7.066;2023-03-01T08:46:54;18.92;;;11.73;;
24161;SDS011;12318;51.262;7.066;2023-03-01T08:49:23;23.48;;;12.65;;
24161;SDS011;12318;51.262;7.066;2023-03-01T08:51:49;20.63;;;12.40;;
24161;SDS011;12318;51.262;7.066;2023-03-01T08:54:19;18.63;;;11.85;;
24161;SDS011;12318;51.262;7.066;2023-03-01T08:56:46;21.42;;;12.35;;
24161;SDS011;12318;51.262;7.066;2023-03-01T08:59:16;19.05;;;11.80;;
24161;SDS011;12318;51.262;7.066;2023-03-01T09:01:55;18.73;;;12.23;;
24161;SDS011;12318;51.262;7.066;2023-03-01T09:04:20;17.70;;;11.48;;
24161;SDS011;12318;51.262;7.066;2023-03-01T09:06:56;17.77;;;11.65;;
24161;SDS011;12318;51.262;7.066;2023-03-01T09:09:25;17.33;;;11.38;;
24161;SDS011;12318;51.262;7.066;2023-03-01T09:11:54;17.27;;;10.52;;
24161;SDS011;12318;51.262;7.066;2023-03-01T09:14:25;19.85;;;11.70;;
24161;SDS011;12318;51.262;7.066;2023-03-01T09:17:24;20.73;;;11.65;;
24161;SDS011;12318;51.262;7.066;2023-03-01T09:22:36;16.92;;;10.95;;
24161;SDS011;12318;51.262;7.066;2023-03-01T09:25:02;20.73;;;11.75;;
24161;SDS011;12318;51.262;7.066;2023-03-01T09:27:28;21.48;;;10.73;;
24161;SDS011;12318;51.262;7.066;2023-03-01T09:29:58;19.85;;;10.80;;
24161;SDS011;12318;51.262;7.066;2023-03-01T09:32:24;18.27;;;10.32;;
24161;SDS011;12318;51.262;7.066;2023-03-01T09:34:50;25.33;;;12.35;;
24161;SDS011;12318;51.262;7.066;2023-03-01T09:37:34;16.40;;;10.38;;
24161;SDS011;12318;51.262;7.066;2023-03-01T09:40:04;19.13;;;9.35;;
24161;SDS011;12318;51.262;7.066;2023-03-01T09:42:45;24.88;;;11.15;;
24161;SDS011;12318;51.262;7.066;2023-03-01T09:45:36;18.08;;;10.38;;
24161;SDS011;12318;51.262;7.066;2023-03-01T09:48:26;20.05;;;10.70;;
24161;SDS011;12318;51.262;7.066;2023-03-01T09:50:59;19.50;;;11.75;;
24161;SDS011;12318;51.262;7.066;2023-03-01T09:53:32;21.38;;;11.55;;
24161;SDS011;12318;51.262;7.066;2023-03-01T09:56:19;19.35;;;10.93;;
24161;SDS011;12318;51.262;7.066;2023-03-01T10:04:45;17.05;;;8.38;;
24161;SDS011;12318;51.262;7.066;2023-03-01T10:07:35;15.07;;;9.65;;
24161;SDS011;12318;51.262;7.066;2023-03-01T10:10:34;18.52;;;10.00;;
24161;SDS011;12318;51.262;7.066;2023-03-01T10:15:43;22.08;;;10.55;;
24161;SDS011;12318;51.262;7.066;2023-03-01T10:18:21;16.98;;;10.38;;
24161;SDS011;12318;51.262;7.066;2023-03-01T10:20:54;19.85;;;10.32;;
24161;SDS011;12318;51.262;7.066;2023-03-01T10:23:26;18.10;;;10.82;;
24161;SDS011;12318;51.262;7.066;2023-03-01T10:29:15;17.48;;;9.82;;
24161;SDS011;12318;51.262;7.066;2023-03-01T10:31:43;15.38;;;10.10;;
24161;SDS011;12318;51.262;7.066;2023-03-01T10:37:13;18.65;;;11.05;;
24161;SDS011;12318;51.262;7.066;2023-03-01T10:40:09;17.63;;;9.55;;
24161;SDS011;12318;51.262;7.066;2023-03-01T10:42:36;17.15;;;10.40;;
24161;SDS011;12318;51.262;7.066;2023-03-01T10:50:34;20.15;;;10.98;;
24161;SDS011;12318;51.262;7.066;2023-03-01T10:53:16;17.52;;;11.05;;
24161;SDS011;12318;51.262;7.066;2023-03-01T10:55:56;20.60;;;10.07;;
24161;SDS011;12318;51.262;7.066;2023-03-01T10:58:28;16.00;;;10.00;;
24161;SDS011;12318;51.262;7.066;2023-03-01T11:06:41;22.05;;;11.00;;
24161;SDS011;12318;51.262;7.066;2023-03-01T11:09:15;17.30;;;10.32;;
24161;SDS011;12318;51.262;7.066;2023-03-01T11:11:55;16.70;;;10.02;;
24161;SDS011;12318;51.262;7.066;2023-03-01T11:14:27;18.30;;;11.30;;
24161;SDS011;12318;51.262;7.066;2023-03-01T11:17:15;17.38;;;10.18;;
24161;SDS011;12318;51.262;7.066;2023-03-01T11:20:29;15.98;;;10.45;;
24161;SDS011;12318;51.262;7.066;2023-03-01T11:22:38;20.13;;;10.98;;
24161;SDS011;12318;51.262;7.066;2023-03-01T11:25:17;16.60;;;9.30;;
24161;SDS011;12318;51.262;7.066;2023-03-01T11:27:48;17.13;;;9.52;;
24161;SDS011;12318;51.262;7.066;2023-03-01T11:35:34;20.13;;;9.25;;
24161;SDS011;12318;51.262;7.066;2023-03-01T11:38:11;17.05;;;10.00;;
24161;SDS011;12318;51.262;7.066;2023-03-01T11:57:34;13.45;;;8.40;;
24161;SDS011;12318;51.262;7.066;2023-03-01T12:09:42;14.82;;;8.57;;
24161;SDS011;12318;51.262;7.066;2023-03-01T12:12:40;14.63;;;8.38;;
24161;SDS011;12318;51.262;7.066;2023-03-01T12:20:29;13.60;;;8.65;;
24161;SDS011;12318;51.262;7.066;2023-03-01T12:28:48;14.87;;;6.70;;
24161;SDS011;12318;51.262;7.066;2023-03-01T12:31:32;18.27;;;8.63;;
24161;SDS011;12318;51.262;7.066;2023-03-01T12:42:48;11.25;;;7.20;;
24161;SDS011;12318;51.262;7.066;2023-03-01T12:46:18;15.50;;;7.72;;
24161;SDS011;12318;51.262;7.066;2023-03-01T12:48:29;13.55;;;7.63;;
24161;SDS011;12318;51.262;7.066;2023-03-01T12:51:08;13.25;;;7.40;;
24161;SDS011;12318;51.262;7.066;2023-03-01T12:53:40;14.18;;;8.10;;
24161;SDS011;12318;51.262;7.066;2023-03-01T12:56:13;14.77;;;7.68;;
24161;SDS011;12318;51.262;7.066;2023-03-01T13:04:33;12.55;;;7.80;;
24161;SDS011;12318;51.262;7.066;2023-03-01T13:07:44;16.10;;;8.73;;
24161;SDS011;12318;51.262;7.066;2023-03-01T13:17:56;13.63;;;8.27;;
24161;SDS011;12318;51.262;7.066;2023-03-01T13:20:50;12.38;;;7.60;;
24161;SDS011;12318;51.262;7.066;2023-03-01T13:39:40;16.05;;;8.18;;
24161;SDS011;12318;51.262;7.066;2023-03-01T13:42:28;13.07;;;8.60;;
24161;SDS011;12318;51.262;7.066;2023-03-01T13:44:52;13.23;;;7.55;;
24161;SDS011;12318;51.262;7.066;2023-03-01T13:47:17;14.02;;;7.97;;
24161;SDS011;12318;51.262;7.066;2023-03-01T13:49:48;16.60;;;7.85;;
24161;SDS011;12318;51.262;7.066;2023-03-01T13:57:42;12.52;;;8.05;;
24161;SDS011;12318;51.262;7.066;2023-03-01T14:00:29;11.23;;;7.28;;
24161;SDS011;12318;51.262;7.066;2023-03-01T14:03:24;14.18;;;8.07;;
24161;SDS011;12318;51.262;7.066;2023-03-01T14:06:03;11.30;;;7.72;;
24161;SDS011;12318;51.262;7.066;2023-03-01T14:09:04;15.52;;;8.05;;
24161;SDS011;12318;51.262;7.066;2023-03-01T14:18:36;15.02;;;7.07;;
24161;SDS011;12318;51.262;7.066;2023-03-01T14:21:13;13.95;;;7.55;;
24161;SDS011;12318;51.262;7.066;2023-03-01T14:23:41;12.70;;;7.55;;
24161;SDS011;12318;51.262;7.066;2023-03-01T14:26:28;14.50;;;7.55;;
24161;SDS011;12318;51.262;7.066;2023-03-01T14:29:03;13.55;;;7.45;;
24161;SDS011;12318;51.262;7.066;2023-03-01T14:31:35;15.82;;;7.50;;
24161;SDS011;12318;51.262;7.066;2023-03-01T14:34:34;11.40;;;7.05;;
24161;SDS011;12318;51.262;7.066;2023-03-01T14:40:33;13.07;;;6.72;;
24161;SDS011;12318;51.262;7.066;2023-03-01T14:43:13;12.05;;;7.30;;
24161;SDS011;12318;51.262;7.066;2023-03-01T14:45:50;14.52;;;6.78;;
24161;SDS011;12318;51.262;7.066;2023-03-01T14:48:43;12.57;;;7.55;;
24161;SDS011;12318;51.262;7.066;2023-03-01T14:51:14;12.30;;;7.25;;
24161;SDS011;12318;51.262;7.066;2023-03-01T14:53:41;13.10;;;6.95;;
24161;SDS011;12318;51.262;7.066;2023-03-01T14:56:12;14.88;;;7.30;;
24161;SDS011;12318;51.262;7.066;2023-03-01T14:58:42;11.90;;;7.28;;
24161;SDS011;12318;51.262;7.066;2023-03-01T15:01:21;13.07;;;6.75;;
24161;SDS011;12318;51.262;7.066;2023-03-01T15:03:47;10.63;;;6.95;;
24161;SDS011;12318;51.262;7.066;2023-03-01T15:06:36;12.02;;;7.00;;
24161;SDS011;12318;51.262;7.066;2023-03-01T15:09:03;11.48;;;6.47;;
24161;SDS011;12318;51.262;7.066;2023-03-01T15:11:33;11.48;;;6.35;;
24161;SDS011;12318;51.262;7.066;2023-03-01T15:14:36;15.10;;;6.90;;
24161;SDS011;12318;51.262;7.066;2023-03-01T15:17:23;10.27;;;6.57;;
24161;SDS011;12318;51.262;7.066;2023-03-01T15:19:57;15.57;;;6.18;;
24161;SDS011;12318;51.262;7.066;2023-03-01T15:22:46;11.50;;;6.10;;
24161;SDS011;12318;51.262;7.066;2023-03-01T15:25:27;9.88;;;5.95;;
24161;SDS011;12318;51.262;7.066;2023-03-01T15:27:56;9.63;;;6.28;;
24161;SDS011;12318;51.262;7.066;2023-03-01T15:33:40;12.98;;;6.57;;
24161;SDS011;12318;51.262;7.066;2023-03-01T15:42:10;9.23;;;6.57;;
24161;SDS011;12318;51.262;7.066;2023-03-01T15:47:55;10.70;;;6.25;;
24161;SDS011;12318;51.262;7.066;2023-03-01T15:50:29;14.38;;;6.60;;
24161;SDS011;12318;51.262;7.066;2023-03-01T15:52:59;9.85;;;6.18;;
24161;SDS011;12318;51.262;7.066;2023-03-01T15:55:27;9.55;;;6.07;;
24161;SDS011;12318;51.262;7.066;2023-03-01T16:00:41;9.05;;;5.65;;
24161;SDS011;12318;51.262;7.066;2023-03-01T16:03:08;10.45;;;5.70;;
24161;SDS011;12318;51.262;7.066;2023-03-01T16:05:46;9.63;;;6.20;;
24161;SDS011;12318;51.262;7.066;2023-03-01T16:08:12;10.02;;;6.50;;
24161;SDS011;12318;51.262;7.066;2023-03-01T16:10:38;13.35;;;7.22;;
24161;SDS011;12318;51.262;7.066;2023-03-01T16:13:06;12.07;;;6.57;;
24161;SDS011;12318;51.262;7.066;2023-03-01T16:15:39;11.32;;;6.03;;
24161;SDS011;12318;51.262;7.066;2023-03-01T16:18:06;10.52;;;5.82;;
24161;SDS011;12318;51.262;7.066;2023-03-01T16:20:35;13.48;;;6.75;;
24161;SDS011;12318;51.262;7.066;2023-03-01T16:23:01;12.27;;;6.15;;
24161;SDS011;12318;51.262;7.066;2023-03-01T16:25:33;13.10;;;6.40;;
24161;SDS011;12318;51.262;7.066;2023-03-01T16:28:00;9.55;;;6.35;;
24161;SDS011;12318;51.262;7.066;2023-03-01T16:30:30;9.77;;;6.13;;
24161;SDS011;12318;51.262;7.066;2023-03-01T16:32:55;8.43;;;5.75;;
24161;SDS011;12318;51.262;7.066;2023-03-01T16:35:21;10.80;;;6.60;;
24161;SDS011;12318;51.262;7.066;2023-03-01T16:37:48;14.00;;;6.40;;
24161;SDS011;12318;51.262;7.066;2023-03-01T16:40:25;10.30;;;6.45;;
24161;SDS011;12318;51.262;7.066;2023-03-01T16:42:53;10.60;;;6.57;;
24161;SDS011;12318;51.262;7.066;2023-03-01T16:45:24;11.38;;;6.13;;
24161;SDS011;12318;51.262;7.066;2023-03-01T16:47:52;10.73;;;6.28;;
24161;SDS011;12318;51.262;7.066;2023-03-01T16:50:18;10.15;;;5.95;;
24161;SDS011;12318;51.262;7.066;2023-03-01T16:52:44;10.38;;;6.65;;
24161;SDS011;12318;51.262;7.066;2023-03-01T16:55:11;11.57;;;6.78;;
24161;SDS011;12318;51.262;7.066;2023-03-01T16:57:37;10.90;;;6.28;;
24161;SDS011;12318;51.262;7.066;2023-03-01T17:00:04;11.70;;;7.07;;
24161;SDS011;12318;51.262;7.066;2023-03-01T17:02:33;10.02;;;6.63;;
24161;SDS011;12318;51.262;7.066;2023-03-01T17:08:04;10.80;;;6.07;;
24161;SDS011;12318;51.262;7.066;2023-03-01T17:10:30;10.50;;;6.78;;
24161;SDS011;12318;51.262;7.066;2023-03-01T17:12:58;11.60;;;6.47;;
24161;SDS011;12318;51.262;7.066;2023-03-01T17:15:24;9.05;;;6.13;;
24161;SDS011;12318;51.262;7.066;2023-03-01T17:17:50;13.70;;;8.02;;
24161;SDS011;12318;51.262;7.066;2023-03-01T17:20:16;10.45;;;6.25;;
24161;SDS011;12318;51.262;7.066;2023-03-01T17:22:42;13.05;;;7.07;;
24161;SDS011;12318;51.262;7.066;2023-03-01T17:27:55;11.95;;;6.55;;
24161;SDS011;12318;51.262;7.066;2023-03-01T17:30:21;11.20;;;7.03;;
24161;SDS011;12318;51.262;7.066;2023-03-01T17:32:47;11.90;;;6.10;;
24161;SDS011;12318;51.262;7.066;2023-03-01T17:35:18;17.55;;;6.82;;
24161;SDS011;12318;51.262;7.066;2023-03-01T17:37:44;12.95;;;7.40;;
24161;SDS011;12318;51.262;7.066;2023-03-01T17:40:10;10.48;;;6.63;;
24161;SDS011;12318;51.262;7.066;2023-03-01T17:42:37;13.90;;;6.93;;
24161;SDS011;12318;51.262;7.066;2023-03-01T17:45:03;11.63;;;6.95;;
24161;SDS011;12318;51.262;7.066;2023-03-01T17:47:29;13.50;;;6.72;;
24161;SDS011;12318;51.262;7.066;2023-03-01T17:49:54;13.35;;;6.53;;
24161;SDS011;12318;51.262;7.066;2023-03-01T17:52:20;13.40;;;6.65;;
24161;SDS011;12318;51.262;7.066;2023-03-01T17:54:47;12.00;;;6.75;;
24161;SDS011;12318;51.262;7.066;2023-03-01T17:57:15;12.23;;;6.55;;
24161;SDS011;12318;51.262;7.066;2023-03-01T17:59:40;10.85;;;6.60;;
24161;SDS011;12318;51.262;7.066;2023-03-01T18:02:06;12.88;;;6.97;;
24161;SDS011;12318;51.262;7.066;2023-03-01T18:04:34;14.50;;;6.88;;
24161;SDS011;12318;51.262;7.066;2023-03-01T18:07:00;11.70;;;6.78;;
24161;SDS011;12318;51.262;7.066;2023-03-01T18:09:26;12.15;;;7.43;;